createdAt,value
2022-10-29T00:00:54.744Z,15.73
2022-10-29T00:03:22.137Z,14.10
2022-10-29T00:06:03.264Z,14.60
2022-10-29T00:08:31.448Z,13.85
2022-10-29T00:11:08.632Z,13.75
2022-10-29T00:13:36.422Z,15.82
2022-10-29T00:16:15.300Z,14.85
2022-10-29T00:18:42.376Z,12.97
2022-10-29T00:21:13.662Z,16.48
2022-10-29T00:23:40.776Z,15.85
2022-10-29T00:26:07.739Z,13.98
2022-10-29T00:28:34.554Z,14.73
2022-10-29T00:31:09.766Z,12.80
2022-10-29T00:33:36.314Z,13.20
2022-10-29T00:36:10.097Z,13.55
2022-10-29T00:38:36.656Z,12.98
2022-10-29T00:41:05.539Z,13.02
2022-10-29T00:43:37.665Z,14.77
2022-10-29T00:46:08.993Z,12.38
2022-10-29T00:48:41.871Z,17.75
2022-10-29T00:51:10.887Z,15.35
2022-10-29T00:53:41.773Z,12.70
2022-10-29T00:56:08.434Z,15.37
2022-10-29T00:58:35.254Z,16.67
2022-10-29T01:01:02.394Z,16.65
2022-10-29T01:03:28.966Z,16.85
2022-10-29T01:05:55.675Z,16.90
2022-10-29T01:08:22.557Z,12.80
2022-10-29T01:10:52.060Z,16.98
2022-10-29T01:13:33.225Z,19.75
2022-10-29T01:16:27.299Z,14.07
2022-10-29T01:19:02.861Z,18.05
2022-10-29T01:21:40.354Z,16.10
2022-10-29T01:24:12.941Z,15.73
2022-10-29T01:26:49.013Z,16.25
2022-10-29T01:29:32.548Z,17.27
2022-10-29T01:32:33.913Z,12.27
2022-10-29T01:35:08.157Z,13.93
2022-10-29T01:37:45.121Z,14.65
2022-10-29T01:40:45.195Z,13.85
2022-10-29T01:43:17.553Z,14.50
2022-10-29T01:45:52.879Z,15.98
2022-10-29T01:48:29.021Z,18.50
2022-10-29T01:51:03.695Z,17.30
2022-10-29T01:53:33.916Z,18.67
2022-10-29T01:56:00.396Z,16.05
2022-10-29T01:58:26.930Z,17.17
2022-10-29T02:01:20.246Z,18.13
2022-10-29T02:04:05.251Z,18.70
2022-10-29T02:06:45.954Z,18.75
2022-10-29T02:09:21.333Z,20.05
2022-10-29T02:11:54.736Z,17.63
2022-10-29T02:14:27.981Z,16.53
2022-10-29T02:16:59.234Z,13.85
2022-10-29T02:19:30.956Z,19.80
2022-10-29T02:21:57.451Z,15.07
2022-10-29T02:24:24.765Z,16.98
2022-10-29T02:26:52.029Z,16.80
2022-10-29T02:29:18.903Z,17.60
2022-10-29T02:31:45.514Z,16.85
2022-10-29T02:34:12.299Z,14.00
2022-10-29T02:36:38.802Z,16.67
2022-10-29T02:39:05.310Z,15.37
2022-10-29T02:41:31.926Z,18.92
2022-10-29T02:43:58.402Z,17.38
2022-10-29T02:46:25.140Z,16.27
2022-10-29T02:48:51.618Z,17.40
2022-10-29T02:51:18.498Z,19.60
2022-10-29T02:53:45.063Z,18.35
2022-10-29T02:56:11.652Z,16.20
2022-10-29T02:58:38.603Z,19.42
2022-10-29T03:01:06.869Z,16.02
2022-10-29T03:03:33.361Z,16.07
2022-10-29T03:05:59.849Z,16.40
2022-10-29T03:08:26.429Z,18.33
2022-10-29T03:10:54.879Z,18.80
2022-10-29T03:13:21.414Z,20.85
2022-10-29T03:15:47.947Z,22.23
2022-10-29T03:18:14.665Z,18.55
2022-10-29T03:20:42.745Z,17.63
2022-10-29T03:23:09.233Z,18.35
2022-10-29T03:25:35.802Z,16.50
2022-10-29T03:28:02.310Z,19.67
2022-10-29T03:30:28.886Z,15.13
2022-10-29T03:32:55.788Z,21.38
2022-10-29T03:35:22.427Z,18.60
2022-10-29T03:37:50.925Z,13.43
2022-10-29T03:40:18.746Z,17.00
2022-10-29T03:42:46.062Z,19.42
2022-10-29T03:45:12.631Z,19.20
2022-10-29T03:47:39.265Z,19.90
2022-10-29T03:50:06.270Z,20.83
2022-10-29T03:52:32.694Z,17.13
2022-10-29T03:54:59.191Z,18.35
2022-10-29T03:57:25.696Z,21.95
2022-10-29T03:59:52.764Z,21.55
2022-10-29T04:02:19.862Z,17.98
2022-10-29T04:04:46.570Z,23.13
2022-10-29T04:07:13.131Z,18.95
2022-10-29T04:09:39.870Z,15.98
2022-10-29T04:12:07.097Z,19.35
2022-10-29T04:14:33.661Z,21.63
2022-10-29T04:17:00.449Z,21.97
2022-10-29T04:19:26.990Z,20.13
2022-10-29T04:32:45.591Z,16.98
2022-10-29T04:35:12.083Z,18.02
2022-10-29T04:37:38.691Z,19.08
2022-10-29T04:40:05.689Z,22.67
2022-10-29T04:42:39.166Z,19.83
2022-10-29T04:45:07.375Z,19.55
2022-10-29T04:47:34.254Z,21.70
2022-10-29T04:50:00.923Z,20.20
2022-10-29T04:52:27.437Z,20.00
2022-10-29T04:54:53.920Z,16.13
2022-10-29T04:57:20.437Z,24.95
2022-10-29T04:59:46.865Z,20.33
2022-10-29T05:02:13.382Z,22.38
2022-10-29T05:04:40.307Z,22.27
2022-10-29T05:07:06.775Z,25.20
2022-10-29T05:09:33.311Z,21.58
2022-10-29T05:11:59.836Z,17.25
2022-10-29T05:14:26.361Z,21.10
2022-10-29T05:16:52.902Z,19.00
2022-10-29T05:19:19.400Z,19.70
2022-10-29T05:21:46.115Z,18.55
2022-10-29T05:24:12.608Z,24.10
2022-10-29T05:26:39.076Z,24.98
2022-10-29T05:29:05.534Z,22.90
2022-10-29T05:31:32.188Z,21.87
2022-10-29T05:33:58.840Z,23.30
2022-10-29T05:36:25.366Z,21.30
2022-10-29T05:38:51.869Z,18.75
2022-10-29T05:41:18.397Z,18.88
2022-10-29T05:43:48.597Z,20.93
2022-10-29T05:46:16.628Z,18.48
2022-10-29T05:48:43.113Z,23.25
2022-10-29T05:51:09.820Z,18.50
2022-10-29T05:53:36.611Z,24.55
2022-10-29T05:56:03.216Z,19.63
2022-10-29T05:58:29.719Z,22.98
2022-10-29T06:00:56.201Z,23.88
2022-10-29T06:03:23.308Z,20.60
2022-10-29T06:05:50.847Z,20.45
2022-10-29T06:08:17.752Z,18.07
2022-10-29T06:10:44.527Z,22.08
2022-10-29T06:13:12.635Z,20.52
2022-10-29T06:15:39.291Z,23.92
2022-10-29T06:18:05.826Z,20.60
2022-10-29T06:20:32.508Z,22.17
2022-10-29T06:22:59.358Z,27.00
2022-10-29T06:25:27.030Z,25.38
2022-10-29T06:28:03.664Z,19.55
2022-10-29T06:30:32.247Z,22.63
2022-10-29T06:32:59.750Z,23.83
2022-10-29T06:35:26.576Z,19.02
2022-10-29T06:37:53.418Z,20.83
2022-10-29T06:40:20.488Z,23.45
2022-10-29T06:42:47.068Z,19.65
2022-10-29T06:45:14.796Z,22.73
2022-10-29T06:47:43.088Z,20.70
2022-10-29T06:50:10.646Z,23.42
2022-10-29T06:52:37.910Z,19.67
2022-10-29T06:55:06.055Z,19.65
2022-10-29T06:57:32.695Z,20.43
2022-10-29T07:00:03.696Z,18.92
2022-10-29T07:02:33.966Z,19.95
2022-10-29T07:05:00.516Z,21.38
2022-10-29T07:07:29.328Z,21.15
2022-10-29T07:09:55.884Z,21.43
2022-10-29T07:12:22.620Z,18.70
2022-10-29T07:14:49.381Z,26.52
2022-10-29T07:17:16.018Z,19.35
2022-10-29T07:19:42.486Z,18.45
2022-10-29T07:22:09.052Z,20.00
2022-10-29T07:24:35.581Z,23.10
2022-10-29T07:27:02.090Z,20.00
2022-10-29T07:29:28.648Z,23.42
2022-10-29T07:31:55.174Z,16.52
2022-10-29T07:34:21.706Z,18.60
2022-10-29T07:36:48.249Z,21.10
2022-10-29T07:39:14.757Z,17.92
2022-10-29T07:41:41.203Z,21.20
2022-10-29T07:44:07.698Z,21.65
2022-10-29T07:46:34.118Z,18.73
2022-10-29T07:49:00.806Z,21.08
2022-10-29T07:51:27.401Z,18.13
2022-10-29T07:53:54.625Z,18.52
2022-10-29T07:56:21.143Z,21.77
2022-10-29T07:58:47.661Z,17.80
2022-10-29T08:01:14.392Z,18.35
2022-10-29T08:03:40.943Z,18.02
2022-10-29T08:06:07.654Z,13.55
2022-10-29T08:08:34.934Z,18.40
2022-10-29T08:11:02.990Z,21.10
2022-10-29T08:13:29.741Z,18.55
2022-10-29T08:15:56.689Z,20.35
2022-10-29T08:18:23.241Z,18.33
2022-10-29T08:20:49.871Z,17.05
2022-10-29T08:23:16.614Z,17.73
2022-10-29T08:25:45.141Z,15.23
2022-10-29T08:28:15.621Z,19.48
2022-10-29T08:30:43.985Z,17.65
2022-10-29T08:33:11.011Z,20.75
2022-10-29T08:35:37.594Z,15.50
2022-10-29T08:38:04.081Z,17.38
2022-10-29T08:41:01.398Z,16.48
2022-10-29T08:43:47.692Z,16.58
2022-10-29T08:46:23.287Z,18.48
2022-10-29T08:48:55.566Z,16.80
2022-10-29T08:51:21.975Z,15.85
2022-10-29T08:54:10.396Z,18.88
2022-10-29T08:56:44.105Z,17.75
2022-10-29T08:59:14.877Z,15.43
2022-10-29T09:01:42.294Z,20.33
2022-10-29T09:04:30.049Z,16.35
2022-10-29T09:07:14.303Z,17.38
2022-10-29T09:09:46.979Z,17.27
2022-10-29T09:12:51.234Z,16.75
2022-10-29T09:15:27.588Z,20.47
2022-10-29T09:18:25.790Z,15.13
2022-10-29T09:21:22.192Z,15.38
2022-10-29T09:23:58.472Z,18.05
2022-10-29T09:26:32.031Z,18.52
2022-10-29T09:29:35.592Z,17.93
2022-10-29T09:32:11.792Z,15.15
2022-10-29T09:34:50.667Z,16.05
2022-10-29T09:37:25.036Z,16.90
2022-10-29T09:39:53.519Z,16.88
2022-10-29T09:42:28.676Z,17.00
2022-10-29T09:45:02.882Z,17.45
2022-10-29T09:47:47.422Z,16.73
2022-10-29T09:50:30.444Z,20.75
2022-10-29T09:52:57.287Z,16.48
2022-10-29T09:55:30.294Z,18.23
2022-10-29T09:57:57.576Z,16.90
2022-10-29T10:00:27.762Z,15.32
2022-10-29T10:03:12.776Z,16.52
2022-10-29T10:06:04.423Z,17.52
2022-10-29T10:08:32.691Z,13.53
2022-10-29T10:11:07.333Z,15.52
2022-10-29T10:13:51.133Z,16.35
2022-10-29T10:16:24.958Z,16.05
2022-10-29T10:18:51.524Z,17.05
2022-10-29T10:21:32.897Z,14.03
2022-10-29T10:24:00.432Z,17.60
2022-10-29T10:26:44.714Z,16.48
2022-10-29T10:29:14.716Z,17.60
2022-10-29T10:31:43.352Z,21.73
2022-10-29T10:34:21.906Z,16.67
2022-10-29T10:37:02.137Z,16.73
2022-10-29T10:39:34.945Z,14.65
2022-10-29T10:42:05.383Z,20.40
2022-10-29T10:44:33.105Z,21.35
2022-10-29T10:47:05.981Z,18.53
2022-10-29T10:49:34.741Z,18.70
2022-10-29T10:52:14.183Z,17.33
2022-10-29T10:54:58.016Z,16.50
2022-10-29T10:57:29.240Z,17.08
2022-10-29T11:00:17.563Z,15.97
2022-10-29T11:03:13.567Z,16.38
2022-10-29T11:05:46.529Z,20.05
2022-10-29T11:08:37.248Z,14.77
2022-10-29T11:11:22.839Z,14.38
2022-10-29T11:13:51.161Z,14.60
2022-10-29T11:16:54.998Z,16.75
2022-10-29T11:19:43.051Z,15.93
2022-10-29T11:22:22.653Z,17.20
2022-10-29T11:24:57.347Z,15.25
2022-10-29T11:27:48.780Z,14.37
2022-10-29T11:30:17.963Z,18.65
2022-10-29T11:33:05.713Z,14.70
2022-10-29T11:36:00.542Z,16.58
2022-10-29T11:38:46.466Z,19.13
2022-10-29T11:41:27.977Z,17.40
2022-10-29T11:43:54.874Z,16.25
2022-10-29T11:46:46.639Z,15.45
2022-10-29T11:49:37.465Z,16.52
2022-10-29T11:52:14.201Z,18.13
2022-10-29T11:55:12.310Z,15.87
2022-10-29T11:58:23.405Z,15.63
2022-10-29T12:01:34.423Z,15.05
2022-10-29T12:04:24.128Z,15.98
2022-10-29T12:07:09.386Z,13.05
2022-10-29T12:10:11.216Z,24.37
2022-10-29T12:12:54.899Z,16.25
2022-10-29T12:15:37.051Z,15.25
2022-10-29T12:18:13.433Z,16.00
2022-10-29T12:20:47.514Z,15.15
2022-10-29T12:23:53.910Z,14.90
2022-10-29T12:26:31.562Z,16.73
2022-10-29T12:29:28.953Z,15.23
2022-10-29T12:32:12.887Z,15.35
2022-10-29T12:35:06.489Z,16.35
2022-10-29T12:37:57.942Z,13.33
2022-10-29T12:40:28.787Z,16.25
2022-10-29T12:42:57.363Z,16.23
2022-10-29T12:45:48.050Z,19.48
2022-10-29T12:48:37.318Z,13.27
2022-10-29T12:51:18.022Z,13.57
2022-10-29T12:54:01.159Z,18.33
2022-10-29T12:56:30.251Z,14.55
2022-10-29T12:58:59.574Z,17.33
2022-10-29T13:01:49.988Z,16.13
2022-10-29T13:04:22.408Z,18.77
2022-10-29T13:07:04.882Z,15.55
2022-10-29T13:09:36.735Z,16.25
2022-10-29T13:12:11.011Z,16.55
2022-10-29T13:14:40.405Z,15.00
2022-10-29T13:17:31.095Z,16.40
2022-10-29T13:20:00.830Z,13.80
2022-10-29T13:22:34.881Z,11.88
2022-10-29T13:25:29.509Z,13.52
2022-10-29T13:27:56.040Z,11.75
2022-10-29T13:30:25.665Z,18.67
2022-10-29T13:32:54.892Z,13.73
2022-10-29T13:35:21.747Z,14.75
2022-10-29T13:38:17.802Z,12.77
2022-10-29T13:41:11.937Z,16.33
2022-10-29T13:43:40.215Z,15.97
2022-10-29T13:46:17.292Z,12.38
2022-10-29T13:48:46.349Z,14.75
2022-10-29T13:51:18.128Z,12.85
2022-10-29T13:54:07.838Z,13.05
2022-10-29T13:56:54.325Z,14.47
2022-10-29T13:59:28.492Z,18.10
2022-10-29T14:02:02.908Z,14.48
2022-10-29T14:04:38.741Z,13.63
2022-10-29T14:07:12.174Z,13.35
2022-10-29T14:09:46.938Z,11.73
2022-10-29T14:12:24.898Z,13.52
2022-10-29T14:15:08.381Z,11.73
2022-10-29T14:17:35.076Z,14.50
2022-10-29T14:20:01.792Z,16.63
2022-10-29T14:22:38.161Z,13.67
2022-10-29T14:25:24.737Z,12.57
2022-10-29T14:28:17.641Z,14.80
2022-10-29T14:30:46.299Z,13.90
2022-10-29T14:33:26.056Z,12.23
2022-10-29T14:36:01.423Z,12.43
2022-10-29T14:38:36.424Z,16.30
2022-10-29T14:41:03.135Z,16.48
2022-10-29T14:43:30.189Z,17.75
2022-10-29T14:46:10.717Z,17.10
2022-10-29T14:48:38.811Z,18.33
2022-10-29T14:51:05.884Z,18.50
2022-10-29T14:53:35.183Z,20.52
2022-10-29T14:56:09.464Z,24.13
2022-10-29T14:58:37.910Z,21.08
2022-10-29T15:01:12.200Z,26.00
2022-10-29T15:03:39.026Z,23.50
2022-10-29T15:06:13.956Z,25.05
2022-10-29T15:08:42.677Z,24.90
2022-10-29T15:11:27.804Z,23.15
2022-10-29T15:13:54.366Z,23.40
2022-10-29T15:16:21.507Z,18.48
2022-10-29T15:18:53.331Z,17.75
2022-10-29T15:21:24.502Z,20.17
2022-10-29T15:23:56.269Z,20.00
2022-10-29T15:26:22.933Z,17.33
2022-10-29T15:28:52.467Z,19.80
2022-10-29T15:31:24.334Z,18.80
2022-10-29T15:33:52.810Z,18.83
2022-10-29T15:36:19.423Z,17.35
2022-10-29T15:38:52.320Z,20.03
2022-10-29T15:41:45.189Z,17.42
2022-10-29T15:44:36.102Z,17.52
2022-10-29T15:47:19.600Z,18.35
2022-10-29T15:49:46.107Z,20.45
2022-10-29T15:52:17.666Z,16.97
2022-10-29T15:54:44.664Z,16.15
2022-10-29T15:57:14.350Z,17.13
2022-10-29T15:59:41.276Z,17.92
2022-10-29T16:02:19.107Z,17.45
2022-10-29T16:04:45.703Z,18.43
2022-10-29T16:07:16.048Z,17.85
2022-10-29T16:09:49.137Z,15.82
2022-10-29T16:12:16.015Z,17.05
2022-10-29T16:14:42.631Z,18.52
2022-10-29T16:17:18.145Z,19.33
2022-10-29T16:19:44.899Z,18.75
2022-10-29T16:22:14.506Z,21.00
2022-10-29T16:24:41.424Z,17.77
2022-10-29T16:27:16.401Z,19.98
2022-10-29T16:29:42.921Z,19.03
2022-10-29T16:32:27.299Z,22.50
2022-10-29T16:34:53.806Z,23.00
2022-10-29T16:37:21.657Z,21.23
2022-10-29T16:39:48.202Z,30.27
2022-10-29T16:42:29.716Z,26.97
2022-10-29T16:44:56.524Z,25.13
2022-10-29T16:47:23.336Z,25.40
2022-10-29T16:49:49.831Z,32.40
2022-10-29T16:52:20.969Z,26.50
2022-10-29T16:54:49.046Z,25.50
2022-10-29T16:57:15.599Z,25.20
2022-10-29T16:59:42.045Z,25.42
2022-10-29T17:02:10.788Z,21.33
2022-10-29T17:04:37.343Z,23.45
2022-10-29T17:07:03.956Z,20.80
2022-10-29T17:09:30.830Z,23.52
2022-10-29T17:11:57.694Z,23.98
2022-10-29T17:14:24.770Z,24.80
2022-10-29T17:16:51.329Z,25.88
2022-10-29T17:19:17.861Z,23.73
2022-10-29T17:21:44.446Z,22.30
2022-10-29T17:24:11.170Z,23.95
2022-10-29T17:26:37.649Z,21.95
2022-10-29T17:29:04.219Z,23.58
2022-10-29T17:31:30.727Z,21.83
2022-10-29T17:33:57.222Z,21.88
2022-10-29T17:36:23.679Z,22.35
2022-10-29T17:38:50.176Z,18.98
2022-10-29T17:41:16.627Z,20.45
2022-10-29T17:43:43.261Z,23.00
2022-10-29T17:46:09.817Z,20.92
2022-10-29T17:48:36.790Z,24.02
2022-10-29T17:51:03.435Z,21.95
2022-10-29T17:53:31.311Z,23.27
2022-10-29T17:55:59.314Z,24.83
2022-10-29T17:58:26.675Z,23.38
2022-10-29T18:00:53.492Z,22.02
2022-10-29T18:03:20.106Z,22.58
2022-10-29T18:05:47.060Z,24.50
2022-10-29T18:08:13.598Z,25.57
2022-10-29T18:10:40.131Z,24.95
2022-10-29T18:13:06.587Z,25.20
2022-10-29T18:15:33.108Z,23.15
2022-10-29T18:18:00.692Z,29.08
2022-10-29T18:20:27.177Z,32.90
2022-10-29T18:22:55.981Z,39.85
2022-10-29T18:25:22.963Z,34.55
2022-10-29T18:27:55.372Z,30.52
2022-10-29T18:30:22.856Z,29.67
2022-10-29T18:32:49.554Z,35.00
2022-10-29T18:35:16.530Z,35.75
2022-10-29T18:37:43.097Z,41.95
2022-10-29T18:40:11.859Z,46.40
2022-10-29T18:42:38.555Z,47.00
2022-10-29T18:45:05.622Z,48.40
2022-10-29T18:47:32.188Z,53.25
2022-10-29T18:49:58.763Z,52.00
2022-10-29T18:52:25.256Z,50.28
2022-10-29T18:54:51.851Z,49.03
2022-10-29T18:57:19.482Z,53.57
2022-10-29T18:59:46.229Z,51.67
2022-10-29T19:02:12.857Z,55.40
2022-10-29T19:04:39.530Z,50.78
2022-10-29T19:07:06.122Z,50.08
2022-10-29T19:09:32.712Z,54.53
2022-10-29T19:11:59.654Z,54.05
2022-10-29T19:14:26.321Z,53.13
2022-10-29T19:16:52.844Z,52.50
2022-10-29T19:19:22.882Z,50.15
2022-10-29T19:21:50.646Z,57.73
2022-10-29T19:24:17.715Z,54.90
2022-10-29T19:26:44.333Z,57.78
2022-10-29T19:29:11.266Z,54.90
2022-10-29T19:31:37.756Z,57.42
2022-10-29T19:34:06.646Z,51.57
2022-10-29T19:36:35.032Z,55.95
2022-10-29T19:39:01.916Z,53.80
2022-10-29T19:41:29.302Z,55.75
2022-10-29T19:43:59.938Z,54.65
2022-10-29T19:46:26.556Z,53.27
2022-10-29T19:48:54.840Z,55.92
2022-10-29T19:51:22.475Z,55.45
2022-10-29T19:53:51.299Z,53.75
2022-10-29T19:56:18.627Z,55.85
2022-10-29T19:58:45.640Z,47.40
2022-10-29T20:01:16.006Z,50.50
2022-10-29T20:03:43.266Z,48.75
2022-10-29T20:06:11.150Z,48.53
2022-10-29T20:08:38.014Z,49.15
2022-10-29T20:11:05.411Z,51.23
2022-10-29T20:13:32.149Z,51.05
2022-10-29T20:15:58.750Z,47.08
2022-10-29T20:18:25.463Z,48.10
2022-10-29T20:20:56.474Z,54.05
2022-10-29T20:23:25.568Z,47.67
2022-10-29T20:25:52.220Z,49.30
2022-10-29T20:28:18.771Z,49.10
2022-10-29T20:30:45.290Z,48.33
2022-10-29T20:33:11.893Z,56.28
2022-10-29T20:35:38.604Z,49.57
2022-10-29T20:38:05.783Z,47.47
2022-10-29T20:40:32.397Z,49.78
2022-10-29T20:42:59.013Z,49.97
2022-10-29T20:45:25.568Z,48.00
2022-10-29T20:47:52.109Z,50.90
2022-10-29T20:50:18.666Z,53.78
2022-10-29T20:52:48.650Z,56.40
2022-10-29T20:55:16.036Z,57.20
2022-10-29T20:57:42.664Z,61.70
2022-10-29T21:00:09.821Z,61.00
2022-10-29T21:02:36.453Z,55.03
2022-10-29T21:05:03.188Z,63.80
2022-10-29T21:07:29.719Z,60.15
2022-10-29T21:09:56.293Z,65.53
2022-10-29T21:12:22.827Z,66.30
2022-10-29T21:14:49.328Z,68.93
2022-10-29T21:17:15.813Z,75.07
2022-10-29T21:19:42.386Z,81.90
2022-10-29T21:22:08.908Z,84.05
2022-10-29T21:24:35.743Z,89.80
2022-10-29T21:27:02.622Z,103.47
2022-10-29T21:29:29.169Z,104.20
2022-10-29T21:31:55.805Z,105.07
2022-10-29T21:34:22.622Z,94.22
2022-10-29T21:36:49.594Z,94.83
2022-10-29T21:39:16.168Z,93.82
2022-10-29T21:41:42.691Z,85.22
2022-10-29T21:44:09.329Z,83.95
2022-10-29T21:46:35.899Z,89.78
2022-10-29T21:49:02.387Z,80.57
2022-10-29T21:51:28.882Z,70.25
2022-10-29T21:53:55.534Z,69.32
2022-10-29T21:56:22.068Z,72.35
2022-10-29T21:58:51.314Z,66.88
2022-10-29T22:01:18.643Z,70.07
2022-10-29T22:03:46.760Z,60.15
2022-10-29T22:06:14.656Z,70.53
2022-10-29T22:08:41.532Z,71.97
2022-10-29T22:11:08.154Z,62.25
2022-10-29T22:13:35.194Z,65.73
2022-10-29T22:16:03.761Z,65.20
2022-10-29T22:18:30.729Z,68.20
2022-10-29T22:21:04.009Z,59.75
2022-10-29T22:23:30.510Z,60.88
2022-10-29T22:25:57.122Z,60.50
2022-10-29T22:28:23.629Z,59.25
2022-10-29T22:30:57.177Z,63.80
2022-10-29T22:33:23.742Z,62.83
2022-10-29T22:35:50.247Z,59.90
2022-10-29T22:38:16.665Z,60.70
2022-10-29T22:40:43.159Z,61.13
2022-10-29T22:43:09.681Z,53.25
2022-10-29T22:45:36.233Z,58.05
2022-10-29T22:48:02.742Z,63.58
2022-10-29T22:50:29.241Z,58.63
2022-10-29T22:52:56.464Z,60.92
2022-10-29T22:55:23.178Z,58.20
2022-10-29T22:57:49.696Z,57.35
2022-10-29T23:00:16.849Z,58.20
2022-10-29T23:02:43.392Z,55.23
2022-10-29T23:05:09.946Z,58.88
2022-10-29T23:07:36.497Z,56.22
2022-10-29T23:10:03.326Z,59.53
2022-10-29T23:12:30.029Z,55.88
2022-10-29T23:14:56.462Z,55.10
2022-10-29T23:17:23.129Z,57.20
2022-10-29T23:19:49.742Z,55.25
2022-10-29T23:22:16.241Z,56.60
2022-10-29T23:24:42.743Z,55.20
2022-10-29T23:27:09.244Z,56.10
2022-10-29T23:29:36.381Z,52.03
2022-10-29T23:32:03.619Z,53.45
2022-10-29T23:34:30.142Z,56.38
2022-10-29T23:36:57.654Z,51.95
2022-10-29T23:39:24.107Z,52.63
2022-10-29T23:41:50.549Z,54.67
2022-10-29T23:44:17.124Z,53.08
2022-10-29T23:46:43.626Z,56.85
2022-10-29T23:49:10.504Z,59.45
2022-10-29T23:51:37.016Z,56.47
2022-10-29T23:54:03.607Z,53.67
2022-10-29T23:56:30.115Z,53.20
2022-10-29T23:58:56.688Z,56.50
